createdAt,value
2019-05-03T07:09:05.358Z,9.20
2019-05-03T07:11:39.552Z,9.30
2019-05-03T07:14:20.793Z,9.40
2019-05-03T07:17:14.478Z,9.40
2019-05-03T07:20:07.943Z,9.50
2019-05-03T07:22:47.067Z,9.50
2019-05-03T07:25:25.574Z,9.60
2019-05-03T07:28:44.459Z,9.70
2019-05-03T07:50:35.765Z,10.50
2019-05-03T07:53:15.047Z,10.60
2019-05-03T07:56:01.617Z,10.80
2019-05-03T07:58:39.584Z,10.80
2019-05-03T08:01:40.259Z,10.90
2019-05-03T08:04:19.435Z,10.90
2019-05-03T08:07:22.435Z,11.00
2019-05-03T08:10:08.123Z,11.00
2019-05-03T08:12:48.494Z,11.10
2019-05-03T08:15:46.349Z,11.10
2019-05-03T08:21:39.310Z,11.20
2019-05-03T08:24:18.548Z,11.20
2019-05-03T08:27:33.023Z,11.30
2019-05-03T08:30:28.935Z,11.40
2019-05-03T08:33:19.176Z,11.60
2019-05-03T08:35:50.928Z,12.00
2019-05-03T08:38:28.531Z,12.20
2019-05-03T08:41:06.662Z,12.60
2019-05-03T08:43:37.279Z,12.70
2019-05-03T08:46:19.308Z,12.80
2019-05-03T09:00:30.737Z,12.10
2019-05-03T09:03:09.980Z,11.90
2019-05-03T09:05:50.574Z,11.90
2019-05-03T09:08:26.751Z,11.70
2019-05-03T09:11:34.846Z,11.60
2019-05-03T09:14:11.750Z,11.40
2019-05-03T09:16:44.736Z,11.00
2019-05-03T09:19:22.495Z,10.70
2019-05-03T09:26:15.771Z,10.60
2019-05-03T09:29:08.242Z,10.80
2019-05-03T10:10:05.747Z,9.20
2019-05-03T10:13:13.176Z,9.30
2019-05-03T10:16:27.583Z,9.30
2019-05-03T10:19:13.715Z,9.20
2019-05-03T10:22:49.682Z,9.20
2019-05-03T10:28:58.663Z,9.40
2019-05-03T10:32:18.685Z,9.40
2019-05-03T10:35:05.488Z,9.20
2019-05-03T10:37:59.660Z,8.90
2019-05-03T10:40:38.150Z,8.50
2019-05-03T10:43:47.825Z,8.00
2019-05-03T10:49:45.749Z,7.90
2019-05-03T10:55:38.835Z,8.60
2019-05-03T10:58:28.837Z,9.10
2019-05-03T11:01:21.012Z,9.40
2019-05-03T11:07:38.511Z,9.90
2019-05-03T11:11:00.883Z,10.20
2019-05-03T11:13:51.919Z,10.50
2019-05-03T11:19:58.386Z,11.10
2019-05-03T11:22:45.247Z,11.40
2019-05-03T11:29:15.368Z,11.70
2019-05-03T11:32:16.363Z,11.80
2019-05-03T11:37:47.159Z,12.00
2019-05-03T11:40:35.098Z,12.00
2019-05-03T11:44:07.178Z,12.10
2019-05-03T11:46:55.580Z,12.40
2019-05-03T11:49:38.354Z,12.50
2019-05-03T11:52:15.877Z,12.40
2019-05-03T11:55:11.364Z,12.40
2019-05-03T11:58:27.186Z,12.30
2019-05-03T12:01:31.509Z,12.40
2019-05-03T12:04:07.785Z,12.40
2019-05-03T12:06:49.164Z,12.50
2019-05-03T12:09:23.620Z,12.60
2019-05-03T12:12:30.091Z,12.60
2019-05-03T12:18:52.225Z,12.50
2019-05-03T12:21:14.742Z,12.50
2019-05-03T12:23:47.017Z,12.60
2019-05-03T12:26:19.301Z,12.60
2019-05-03T12:29:09.352Z,12.60
2019-05-03T12:31:40.626Z,12.70
2019-05-03T12:34:16.495Z,12.70
2019-05-03T12:37:28.143Z,12.90
2019-05-03T12:40:26.953Z,13.10
2019-05-03T12:43:05.976Z,13.30
2019-05-03T12:45:41.343Z,13.30
2019-05-03T12:51:34.526Z,13.30
2019-05-03T12:54:15.266Z,13.00
2019-05-03T12:56:51.246Z,12.80
2019-05-03T12:59:48.312Z,12.60
2019-05-03T13:02:29.226Z,12.50
2019-05-03T13:05:07.678Z,12.50
2019-05-03T13:07:46.272Z,12.50
2019-05-03T13:10:34.641Z,12.40
2019-05-03T13:13:17.794Z,12.40
2019-05-03T13:16:10.236Z,12.20
